Time;durP1;ratioP1;P1;durP2;ratioP2;P2;SDS_P1;SDS_P2;PMS_P1;PMS_P2;Temp;Humidity;BMP_temperature;BMP_pressure;BME280_temperature;BME280_humidity;BME280_pressure;Samples;Min_cycle;Max_cycle;Signal;HPM_P1;HPM_P2
2022/07/27 00:00:25;;;;;;;;;;;;;;;17.70;70.58;100665.44;4976715;28;1444;-88
2022/07/27 00:02:51;;;;;;;;;;;;;;;17.57;71.00;100658.09;4976718;28;1186;-87
2022/07/27 00:05:16;;;;;;;;;;;;;;;17.56;72.14;100658.41;4976438;28;1220;-88
2022/07/27 00:07:41;;;;;;;;;;;;;;;17.51;73.20;100658.56;4976619;28;1288;-88
2022/07/27 00:10:07;;;;;;;;;;;;;;;17.50;72.94;100662.47;4976583;28;1295;-88
2022/07/27 00:12:32;;;;;;;;;;;;;;;17.55;70.77;100652.06;4977407;28;1952;-88
2022/07/27 00:14:58;;;;;;;;;;;;;;;17.53;71.27;100661.81;4976228;28;1585;-87
2022/07/27 00:17:24;;;;;;;;;;;;;;;17.57;71.19;100660.84;4976181;28;1305;-87
2022/07/27 00:19:49;;;;;;;;;;;;;;;17.48;69.35;100651.72;4976170;28;1307;-87
2022/07/27 00:22:14;;;;;;;;;;;;;;;17.33;69.50;100652.19;4975959;28;1214;-87
2022/07/27 00:24:39;;;;;;;;;;;;;;;17.42;70.75;100649.44;4976229;28;1398;-89
2022/07/27 00:27:04;;;;;;;;;;;;;;;17.46;69.24;100642.91;4976201;28;1304;-87
2022/07/27 00:29:29;;;;;;;;;;;;;;;17.41;69.15;100651.38;4977613;28;1589;-88
2022/07/27 00:31:55;;;;;;;;;;;;;;;17.31;69.29;100651.69;4976407;28;1953;-88
2022/07/27 00:34:20;;;;;;;;;;;;;;;17.26;70.29;100657.38;4976146;28;1359;-87
2022/07/27 00:36:45;;;;;;;;;;;;;;;17.21;71.15;100655.56;4975373;28;974;-88
2022/07/27 00:39:10;;;;;;;;;;;;;;;17.15;69.99;100664.31;4976147;28;949;-87
2022/07/27 00:41:35;;;;;;;;;;;;;;;17.06;70.58;100652.41;4976000;28;980;-88
2022/07/27 00:44:02;;;;;;;;;;;;;;;17.10;71.61;100665.28;4975966;28;1283;-88
2022/07/27 00:46:27;;;;;;;;;;;;;;;17.13;69.93;100656.34;4976001;28;1316;-88
2022/07/27 00:48:53;;;;;;;;;;;;;;;17.11;70.75;100657.78;4975737;28;1480;-87
2022/07/27 00:51:19;;;;;;;;;;;;;;;17.10;70.52;100664.50;4975645;28;1260;-89
2022/07/27 00:53:45;;;;;;;;;;;;;;;17.07;69.85;100662.34;4975693;28;1891;-88
2022/07/27 00:56:10;;;;;;;;;;;;;;;17.06;70.39;100664.28;4975444;28;1247;-88
2022/07/27 00:58:36;;;;;;;;;;;;;;;16.98;70.90;100667.84;4976987;28;767;-88
2022/07/27 01:01:01;;;;;;;;;;;;;;;16.93;71.38;100659.66;4975865;28;1370;-88
2022/07/27 01:03:27;;;;;;;;;;;;;;;16.92;69.83;100664.41;4975291;28;1260;-87
2022/07/27 01:05:52;;;;;;;;;;;;;;;16.91;70.02;100661.97;4975688;28;1327;-88
2022/07/27 01:08:17;;;;;;;;;;;;;;;17.00;70.42;100668.34;4976591;28;960;-88
2022/07/27 01:10:43;;;;;;;;;;;;;;;16.89;70.73;100670.56;4975408;28;1185;-88
2022/07/27 01:13:08;;;;;;;;;;;;;;;16.90;71.44;100663.91;4975048;28;1943;-87
2022/07/27 01:15:33;;;;;;;;;;;;;;;16.92;69.91;100661.66;4975239;28;1572;-87
2022/07/27 01:17:59;;;;;;;;;;;;;;;16.93;70.35;100663.25;4975297;28;1205;-88
2022/07/27 01:20:24;;;;;;;;;;;;;;;16.81;69.98;100665.81;4975620;28;1306;-87
2022/07/27 01:22:49;;;;;;;;;;;;;;;16.81;69.86;100660.28;4975057;28;1328;-88
2022/07/27 01:25:14;;;;;;;;;;;;;;;16.77;70.38;100667.56;4976311;28;826;-86
2022/07/27 01:27:40;;;;;;;;;;;;;;;16.75;70.80;100666.28;4976706;28;975;-86
2022/07/27 01:30:25;;;;;;;;;;;;;;;16.72;70.04;100664.16;4974652;28;1770;-86
2022/07/27 01:32:50;;;;;;;;;;;;;;;16.69;70.59;100668.34;4974357;28;1910;-86
2022/07/27 01:35:15;;;;;;;;;;;;;;;16.64;71.63;100660.19;4975825;28;1549;-87
2022/07/27 01:37:40;;;;;;;;;;;;;;;16.66;70.26;100657.13;4974693;28;1169;-86
2022/07/27 01:40:06;;;;;;;;;;;;;;;16.69;70.85;100662.00;4974691;28;1088;-87
2022/07/27 01:42:31;;;;;;;;;;;;;;;16.69;72.06;100660.06;4974466;28;1376;-86
2022/07/27 01:44:56;;;;;;;;;;;;;;;16.71;71.21;100657.78;4960227;28;1158;-86
2022/07/27 01:47:21;;;;;;;;;;;;;;;16.62;73.21;100662.47;4956603;28;901;-85
2022/07/27 01:49:46;;;;;;;;;;;;;;;16.49;73.37;100660.59;4964754;28;1621;-86
2022/07/27 01:52:11;;;;;;;;;;;;;;;16.54;72.28;100660.44;4974482;28;1894;-87
2022/07/27 01:54:36;;;;;;;;;;;;;;;16.57;71.22;100654.28;4974891;28;1012;-86
2022/07/27 01:57:02;;;;;;;;;;;;;;;16.69;72.06;100654.53;4976743;28;1233;-85
2022/07/27 01:59:27;;;;;;;;;;;;;;;16.68;70.83;100647.38;4975247;28;1315;-85
2022/07/27 02:01:52;;;;;;;;;;;;;;;16.72;69.70;100647.56;4974462;28;1411;-86
2022/07/27 02:04:17;;;;;;;;;;;;;;;16.75;70.33;100653.28;4974970;28;1143;-86
2022/07/27 02:06:42;;;;;;;;;;;;;;;16.69;72.84;100649.00;4972740;28;1319;-86
2022/07/27 02:09:07;;;;;;;;;;;;;;;16.56;73.03;100652.66;4956453;29;1043;-86
2022/07/27 02:14:17;;;;;;;;;;;;;;;16.44;73.43;100658.75;4975156;28;1404;-85
2022/07/27 02:16:42;;;;;;;;;;;;;;;16.49;74.18;100664.16;4975412;28;1143;-86
2022/07/27 02:19:07;;;;;;;;;;;;;;;16.50;73.02;100656.69;4970829;28;925;-86
2022/07/27 02:21:32;;;;;;;;;;;;;;;16.48;72.14;100659.75;4974057;28;1288;-86
2022/07/27 02:23:57;;;;;;;;;;;;;;;16.49;73.70;100660.59;4973957;28;1543;-86
2022/07/27 02:26:23;;;;;;;;;;;;;;;16.35;75.70;100662.59;4975363;28;1079;-87
2022/07/27 02:28:48;;;;;;;;;;;;;;;16.35;75.43;100662.59;4973857;28;1412;-86
2022/07/27 02:31:13;;;;;;;;;;;;;;;16.17;75.83;100665.22;4981062;28;1737;-86
2022/07/27 02:33:38;;;;;;;;;;;;;;;16.20;76.82;100658.25;4980960;28;1965;-87
2022/07/27 02:36:04;;;;;;;;;;;;;;;16.19;75.65;100664.91;4975101;28;996;-86
2022/07/27 02:38:29;;;;;;;;;;;;;;;16.03;76.83;100667.22;4974098;28;1191;-86
2022/07/27 02:40:54;;;;;;;;;;;;;;;16.08;76.69;100669.03;4974071;28;895;-86
2022/07/27 02:43:19;;;;;;;;;;;;;;;16.15;74.60;100669.44;4968574;28;1276;-87
2022/07/27 02:45:44;;;;;;;;;;;;;;;16.08;74.55;100661.56;4954438;29;1158;-86
2022/07/27 02:48:09;;;;;;;;;;;;;;;16.16;74.14;100666.34;4960669;28;1590;-86
2022/07/27 02:50:34;;;;;;;;;;;;;;;16.16;74.27;100673.84;4973693;28;823;-86
2022/07/27 02:53:00;;;;;;;;;;;;;;;16.20;73.77;100663.78;4974863;28;1907;-86
2022/07/27 02:55:25;;;;;;;;;;;;;;;16.06;74.65;100669.38;4973979;28;1315;-86
2022/07/27 02:57:50;;;;;;;;;;;;;;;15.96;74.38;100666.84;4974983;28;1504;-86
2022/07/27 03:00:15;;;;;;;;;;;;;;;15.99;75.67;100671.75;4976433;28;953;-87
2022/07/27 03:02:41;;;;;;;;;;;;;;;16.07;75.83;100676.53;4977595;28;1347;-86
2022/07/27 03:05:07;;;;;;;;;;;;;;;16.04;75.22;100663.34;4977496;28;1499;-86
2022/07/27 03:07:32;;;;;;;;;;;;;;;15.99;74.64;100671.75;4978845;28;1425;-86
2022/07/27 03:09:57;;;;;;;;;;;;;;;16.02;73.94;100665.59;4978154;28;1216;-88
2022/07/27 03:12:22;;;;;;;;;;;;;;;16.09;72.85;100667.91;4978005;28;1887;-86
2022/07/27 03:14:48;;;;;;;;;;;;;;;16.13;72.84;100669.75;4977241;28;1768;-87
2022/07/27 03:17:13;;;;;;;;;;;;;;;16.00;74.55;100676.13;4976560;28;1149;-86
2022/07/27 03:19:38;;;;;;;;;;;;;;;16.02;74.93;100676.66;4963078;28;1194;-86
2022/07/27 03:22:03;;;;;;;;;;;;;;;16.05;73.46;100670.50;4977308;28;1266;-87
2022/07/27 03:24:28;;;;;;;;;;;;;;;16.08;74.65;100680.09;4978336;28;906;-86
2022/07/27 03:26:53;;;;;;;;;;;;;;;15.95;73.94;100679.03;4976966;28;1507;-85
2022/07/27 03:29:19;;;;;;;;;;;;;;;15.99;74.29;100682.00;4976997;28;1555;-86
2022/07/27 03:31:44;;;;;;;;;;;;;;;15.94;74.30;100684.84;4977522;28;1902;-87
2022/07/27 03:34:09;;;;;;;;;;;;;;;15.82;74.75;100677.94;5021459;23;1915;-85
2022/07/27 03:36:35;;;;;;;;;;;;;;;15.65;75.29;100685.25;5003688;28;1300;-85
2022/07/27 03:39:00;;;;;;;;;;;;;;;15.77;75.56;100682.75;5000102;28;1376;-86
2022/07/27 03:41:25;;;;;;;;;;;;;;;15.75;75.85;100685.81;4996051;28;1503;-86
2022/07/27 03:43:50;;;;;;;;;;;;;;;15.78;75.40;100689.91;5003232;28;1422;-86
2022/07/27 03:46:15;;;;;;;;;;;;;;;15.73;75.03;100682.56;5006699;28;1129;-85
2022/07/27 03:48:40;;;;;;;;;;;;;;;15.82;75.29;100685.41;5001165;28;1311;-86
2022/07/27 03:51:06;;;;;;;;;;;;;;;15.87;74.76;100685.28;5003767;28;813;-86
2022/07/27 03:53:31;;;;;;;;;;;;;;;15.87;75.08;100683.34;5009488;28;1976;-86
2022/07/27 03:55:56;;;;;;;;;;;;;;;15.85;74.68;100684.78;5008000;28;1529;-85
2022/07/27 03:58:22;;;;;;;;;;;;;;;15.80;74.57;100690.44;4993388;28;1610;-86
2022/07/27 04:00:47;;;;;;;;;;;;;;;15.75;74.70;100685.81;5001348;28;1854;-86
2022/07/27 04:03:13;;;;;;;;;;;;;;;15.64;75.98;100695.47;4999157;28;1288;-86
2022/07/27 04:05:38;;;;;;;;;;;;;;;15.69;75.28;100698.09;5002935;28;1847;-86
2022/07/27 04:08:03;;;;;;;;;;;;;;;15.80;75.50;100693.19;5002161;28;1309;-86
2022/07/27 04:10:28;;;;;;;;;;;;;;;15.78;75.45;100692.69;4998137;28;1590;-86
2022/07/27 04:12:53;;;;;;;;;;;;;;;15.64;75.40;100695.47;5011139;28;1961;-86
2022/07/27 04:15:20;;;;;;;;;;;;;;;15.75;75.37;100693.28;5000819;28;1419;-86
2022/07/27 04:17:45;;;;;;;;;;;;;;;15.78;74.61;100689.91;5009084;28;1594;-86
2022/07/27 04:20:11;;;;;;;;;;;;;;;15.67;74.66;100694.84;4993437;28;1793;-86
2022/07/27 04:22:36;;;;;;;;;;;;;;;15.69;75.21;100697.28;4995048;28;1798;-86
2022/07/27 04:25:01;;;;;;;;;;;;;;;15.70;75.54;100701.69;5008077;28;1575;-86
2022/07/27 04:27:26;;;;;;;;;;;;;;;15.72;75.04;100697.50;4980098;28;1195;-86
2022/07/27 04:29:52;;;;;;;;;;;;;;;15.73;75.08;100693.63;4992085;28;1782;-86
2022/07/27 04:32:17;;;;;;;;;;;;;;;15.75;75.29;100701.56;4997067;28;1954;-86
2022/07/27 04:34:42;;;;;;;;;;;;;;;15.80;75.08;100698.72;4987880;28;1818;-86
2022/07/27 04:37:07;;;;;;;;;;;;;;;15.72;74.17;100696.69;4991102;28;1699;-86
2022/07/27 04:39:32;;;;;;;;;;;;;;;15.70;74.69;100702.50;4997362;28;1278;-87
2022/07/27 04:41:57;;;;;;;;;;;;;;;15.65;75.44;100701.81;5000369;28;1138;-86
2022/07/27 04:44:23;;;;;;;;;;;;;;;15.67;75.53;100700.34;5014763;28;1488;-84
2022/07/27 04:46:48;;;;;;;;;;;;;;;15.61;75.69;100701.59;4998439;28;1329;-85
2022/07/27 04:49:13;;;;;;;;;;;;;;;15.63;77.04;100702.13;5001491;28;1083;-85
2022/07/27 04:51:41;;;;;;;;;;;;;;;15.60;76.24;100699.97;5000287;28;1874;-84
2022/07/27 04:54:06;;;;;;;;;;;;;;;15.70;76.70;100698.94;4988479;28;1714;-82
2022/07/27 04:56:31;;;;;;;;;;;;;;;15.66;75.95;100692.38;4999890;28;1271;-82
2022/07/27 04:58:56;;;;;;;;;;;;;;;15.55;75.77;100697.31;4993294;28;1373;-83
2022/07/27 05:01:22;;;;;;;;;;;;;;;15.52;75.68;100698.72;4999206;28;1259;-82
2022/07/27 05:03:47;;;;;;;;;;;;;;;15.61;75.46;100698.03;4997998;28;1327;-82
2022/07/27 05:06:12;;;;;;;;;;;;;;;15.68;75.41;100701.16;4996782;28;1299;-82
2022/07/27 05:08:37;;;;;;;;;;;;;;;15.70;75.14;100705.25;4993092;28;1686;-82
2022/07/27 05:11:02;;;;;;;;;;;;;;;15.75;74.78;100701.56;4998775;28;1386;-82
2022/07/27 05:13:27;;;;;;;;;;;;;;;15.80;74.92;100699.53;4998472;28;1894;-83
2022/07/27 05:15:52;;;;;;;;;;;;;;;15.79;74.60;100710.88;4998300;28;1659;-83
2022/07/27 05:18:18;;;;;;;;;;;;;;;15.84;74.47;100713.50;4996124;28;1334;-82
2022/07/27 05:20:43;;;;;;;;;;;;;;;15.83;74.44;100715.44;4986159;28;1314;-83
2022/07/27 05:23:08;;;;;;;;;;;;;;;15.62;73.66;100713.47;4992977;28;1359;-83
2022/07/27 05:25:33;;;;;;;;;;;;;;;15.79;73.94;100708.94;4997864;28;1308;-83
2022/07/27 05:27:58;;;;;;;;;;;;;;;15.82;73.90;100716.56;4994593;28;1566;-83
2022/07/27 05:30:24;;;;;;;;;;;;;;;15.84;73.82;100728.13;4997353;28;1501;-83
2022/07/27 05:32:49;;;;;;;;;;;;;;;15.84;75.10;100728.13;4985439;28;1961;-83
2022/07/27 05:35:14;;;;;;;;;;;;;;;15.91;74.37;100733.22;4979731;28;1196;-83
2022/07/27 05:37:39;;;;;;;;;;;;;;;15.93;73.71;100738.44;4981559;28;1317;-83
2022/07/27 05:40:06;;;;;;;;;;;;;;;15.83;74.11;100736.72;5002018;28;1406;-82
2022/07/27 05:42:31;;;;;;;;;;;;;;;15.85;73.50;100742.75;4994415;28;1386;-82
2022/07/27 05:44:56;;;;;;;;;;;;;;;15.88;74.35;100742.97;4990759;28;1448;-83
2022/07/27 05:47:21;;;;;;;;;;;;;;;16.01;74.61;100745.97;4977657;28;889;-82
2022/07/27 05:49:47;;;;;;;;;;;;;;;15.87;73.35;100751.53;4977274;28;936;-82
2022/07/27 05:52:12;;;;;;;;;;;;;;;16.00;73.78;100749.88;4992911;28;1940;-82
2022/07/27 05:54:37;;;;;;;;;;;;;;;15.93;73.38;100752.25;4979515;28;1297;-83
2022/07/27 05:57:02;;;;;;;;;;;;;;;16.06;73.77;100756.94;4982020;28;1207;-82
2022/07/27 05:59:30;;;;;;;;;;;;;;;16.10;73.75;100760.69;4993885;28;1199;-82
2022/07/27 06:01:55;;;;;;;;;;;;;;;16.07;74.50;100769.59;4995127;28;1334;-82
2022/07/27 06:04:21;;;;;;;;;;;;;;;16.06;74.34;100767.97;5010793;28;1174;-83
2022/07/27 06:09:29;;;;;;;;;;;;;;;15.94;72.93;100765.72;4995684;28;1517;-83
2022/07/27 06:11:54;;;;;;;;;;;;;;;15.99;75.03;100762.84;4997417;28;1953;-83
2022/07/27 06:14:20;;;;;;;;;;;;;;;16.12;74.31;100772.25;4998946;28;1373;-83
2022/07/27 06:16:45;;;;;;;;;;;;;;;16.16;73.58;100768.53;4985302;28;1212;-83
2022/07/27 06:19:10;;;;;;;;;;;;;;;16.26;72.83;100768.31;5013719;28;1307;-84
2022/07/27 06:21:35;;;;;;;;;;;;;;;16.26;72.19;100782.13;4988378;28;1605;-83
2022/07/27 06:24:00;;;;;;;;;;;;;;;16.21;71.29;100778.66;4994345;28;1353;-84
2022/07/27 06:26:25;;;;;;;;;;;;;;;16.18;71.99;100776.50;4991399;28;1291;-84
2022/07/27 06:28:51;;;;;;;;;;;;;;;16.23;71.77;100779.19;4997456;28;1290;-84
2022/07/27 06:31:16;;;;;;;;;;;;;;;16.22;71.62;100783.06;5005885;28;1592;-84
2022/07/27 06:33:42;;;;;;;;;;;;;;;16.23;71.74;100780.00;4993164;28;1902;-84
2022/07/27 06:36:07;;;;;;;;;;;;;;;16.30;72.50;100775.97;5001987;28;1346;-84
2022/07/27 06:38:33;;;;;;;;;;;;;;;16.34;71.50;100779.72;4994794;28;1288;-84
2022/07/27 06:40:58;;;;;;;;;;;;;;;16.27;73.33;100778.22;5001132;28;1372;-83
2022/07/27 06:43:24;;;;;;;;;;;;;;;16.22;71.42;100770.06;5000072;28;1304;-84
2022/07/27 06:45:50;;;;;;;;;;;;;;;16.24;71.57;100773.34;5000584;28;1327;-85
2022/07/27 06:48:15;;;;;;;;;;;;;;;16.25;71.40;100772.19;4991292;28;1961;-84
2022/07/27 06:50:40;;;;;;;;;;;;;;;16.19;72.12;100778.97;4981483;28;1155;-84
2022/07/27 06:53:06;;;;;;;;;;;;;;;16.22;73.41;100767.31;4991752;28;1968;-84
2022/07/27 06:55:31;;;;;;;;;;;;;;;16.23;72.47;100773.66;5000036;28;1338;-84
2022/07/27 06:57:56;;;;;;;;;;;;;;;16.32;72.33;100766.25;4989264;28;1402;-84
2022/07/27 07:00:21;;;;;;;;;;;;;;;16.26;72.11;100768.31;4998775;28;1402;-84
2022/07/27 07:02:50;;;;;;;;;;;;;;;16.16;71.64;100782.34;4989278;28;1494;-84
2022/07/27 07:05:15;;;;;;;;;;;;;;;16.18;71.90;100782.84;4995915;28;1293;-84
2022/07/27 07:07:41;;;;;;;;;;;;;;;16.18;71.93;100785.63;4986754;28;1183;-84
2022/07/27 07:10:06;;;;;;;;;;;;;;;16.25;71.69;100788.75;5002445;28;1374;-84
2022/07/27 07:12:32;;;;;;;;;;;;;;;16.10;71.45;100791.06;4999814;28;1902;-84
2022/07/27 07:14:57;;;;;;;;;;;;;;;15.99;72.37;100779.41;4992503;28;1109;-83
2022/07/27 07:17:22;;;;;;;;;;;;;;;16.33;72.75;100778.13;4990549;28;1562;-83
2022/07/27 07:19:47;;;;;;;;;;;;;;;16.57;70.37;100790.53;4999027;28;1102;-84
2022/07/27 07:22:12;;;;;;;;;;;;;;;16.61;71.57;100788.78;4991450;28;1224;-85
2022/07/27 07:24:37;;;;;;;;;;;;;;;16.59;68.84;100781.88;4987949;28;1451;-84
2022/07/27 07:27:02;;;;;;;;;;;;;;;16.60;68.48;100783.53;5002812;28;1197;-83
2022/07/27 07:29:28;;;;;;;;;;;;;;;16.64;69.16;100779.06;4998712;28;1221;-84
2022/07/27 07:31:53;;;;;;;;;;;;;;;16.66;69.90;100778.75;4998076;28;1952;-84
2022/07/27 07:34:18;;;;;;;;;;;;;;;16.44;69.58;100782.25;4984372;28;1386;-84
2022/07/27 07:36:44;;;;;;;;;;;;;;;16.41;70.91;100785.66;4978645;28;1169;-85
2022/07/27 07:39:10;;;;;;;;;;;;;;;16.43;69.97;100788.91;4990703;28;1664;-84
2022/07/27 07:41:35;;;;;;;;;;;;;;;16.38;70.03;100794.56;4995963;28;1421;-84
2022/07/27 07:44:00;;;;;;;;;;;;;;;16.34;69.53;100793.53;4989608;28;1572;-84
2022/07/27 07:46:25;;;;;;;;;;;;;;;16.37;70.17;100799.28;4987564;28;1354;-84
2022/07/27 07:48:51;;;;;;;;;;;;;;;16.39;70.26;100793.44;4998217;28;1340;-84
2022/07/27 07:51:16;;;;;;;;;;;;;;;16.25;70.47;100799.81;4997360;28;1377;-85
2022/07/27 07:53:42;;;;;;;;;;;;;;;16.34;70.73;100801.84;4998009;28;1898;-84
2022/07/27 07:56:07;;;;;;;;;;;;;;;16.38;70.84;100792.63;4995262;28;1464;-84
2022/07/27 07:58:32;;;;;;;;;;;;;;;16.63;69.48;100799.53;4997388;28;1580;-84
2022/07/27 08:00:57;;;;;;;;;;;;;;;16.66;69.99;100787.84;4987519;28;1704;-84
2022/07/27 08:03:23;;;;;;;;;;;;;;;16.75;69.65;100791.50;4997790;28;1594;-84
2022/07/27 08:05:48;;;;;;;;;;;;;;;16.91;69.89;100786.38;4996156;28;1467;-84
2022/07/27 08:08:14;;;;;;;;;;;;;;;17.08;67.15;100786.50;4993830;28;1738;-84
2022/07/27 08:10:39;;;;;;;;;;;;;;;17.08;67.60;100783.72;4986090;28;1647;-85
2022/07/27 08:13:04;;;;;;;;;;;;;;;17.13;66.97;100788.28;4991150;28;1928;-86
2022/07/27 08:15:29;;;;;;;;;;;;;;;17.05;67.17;100792.66;4995705;28;1259;-85
2022/07/27 08:17:54;;;;;;;;;;;;;;;17.00;66.37;100788.09;4983987;28;1142;-85
2022/07/27 08:20:21;;;;;;;;;;;;;;;17.13;66.95;100786.34;4978667;28;1060;-85
2022/07/27 08:22:46;;;;;;;;;;;;;;;17.28;66.78;100782.34;4977194;28;1236;-85
2022/07/27 08:25:11;;;;;;;;;;;;;;;17.44;66.56;100783.56;4978054;28;1020;-85
2022/07/27 08:27:37;;;;;;;;;;;;;;;17.51;65.13;100778.41;4982545;28;1519;-86
2022/07/27 08:30:03;;;;;;;;;;;;;;;17.29;66.01;100782.03;5016885;28;1229;-85
2022/07/27 08:32:28;;;;;;;;;;;;;;;17.00;65.71;100781.72;4980544;28;1902;-85
2022/07/27 08:34:54;;;;;;;;;;;;;;;16.81;67.73;100790.22;4996173;28;1303;-85
2022/07/27 08:37:19;;;;;;;;;;;;;;;16.94;68.82;100772.72;4987424;28;1761;-85
2022/07/27 08:39:44;;;;;;;;;;;;;;;16.98;68.04;100779.28;4977459;28;965;-85
2022/07/27 08:42:10;;;;;;;;;;;;;;;17.14;66.54;100767.81;5002400;28;1286;-84
2022/07/27 08:44:38;;;;;;;;;;;;;;;17.10;62.44;100766.81;4996890;28;1309;-85
2022/07/27 08:47:03;;;;;;;;;;;;;;;17.23;64.29;100763.94;5008419;28;1441;-85
2022/07/27 08:49:29;;;;;;;;;;;;;;;17.26;62.47;100773.56;5009022;28;1181;-83
2022/07/27 08:51:54;;;;;;;;;;;;;;;17.44;61.94;100774.47;5006008;28;1942;-85
2022/07/27 08:54:20;;;;;;;;;;;;;;;17.65;64.35;100759.75;5020727;28;1622;-85
2022/07/27 08:56:45;;;;;;;;;;;;;;;17.66;62.18;100766.09;5006904;28;1200;-85
2022/07/27 08:59:10;;;;;;;;;;;;;;;17.53;60.91;100762.25;4995872;28;1350;-85
2022/07/27 09:01:36;;;;;;;;;;;;;;;17.50;62.59;100773.19;5007901;28;1473;-85
2022/07/27 09:04:01;;;;;;;;;;;;;;;17.51;64.16;100783.13;5003536;28;1758;-84
2022/07/27 09:06:38;;;;;;;;;;;;;;;17.35;61.30;100771.66;5008757;28;1545;-85
2022/07/27 09:09:03;;;;;;;;;;;;;;;17.21;61.56;100780.03;5002101;28;1399;-85
2022/07/27 09:11:30;;;;;;;;;;;;;;;17.15;60.83;100775.78;4996606;28;1535;-85
2022/07/27 09:14:00;;;;;;;;;;;;;;;17.08;60.54;100783.72;4988855;28;1875;-85
2022/07/27 09:16:28;;;;;;;;;;;;;;;17.05;61.41;100783.53;5002921;28;1329;-85
2022/07/27 09:18:57;;;;;;;;;;;;;;;17.23;64.50;100790.78;5000575;28;1409;-84
2022/07/27 09:21:22;;;;;;;;;;;;;;;17.39;63.35;100794.78;5003797;28;1362;-86
2022/07/27 09:23:52;;;;;;;;;;;;;;;17.45;60.68;100793.50;4998388;28;1683;-85
2022/07/27 09:26:18;;;;;;;;;;;;;;;17.43;60.69;100790.25;5009380;28;1493;-85
2022/07/27 09:28:44;;;;;;;;;;;;;;;17.40;58.69;100779.81;5020018;28;1615;-85
2022/07/27 09:31:10;;;;;;;;;;;;;;;17.42;60.14;100785.84;5000763;28;1473;-85
2022/07/27 09:33:46;;;;;;;;;;;;;;;17.40;59.40;100783.38;5001418;28;1878;-86
2022/07/27 09:36:12;;;;;;;;;;;;;;;17.34;61.25;100783.84;5042307;23;2037;-89
2022/07/27 09:39:01;;;;;;;;;;;;;;;17.38;61.43;100787.59;5011606;28;1710;-89
2022/07/27 09:41:26;;;;;;;;;;;;;;;17.44;59.87;100788.31;5012321;28;1295;-88
2022/07/27 09:43:53;;;;;;;;;;;;;;;17.55;60.57;100782.13;5012973;28;1254;-88
2022/07/27 09:46:28;;;;;;;;;;;;;;;17.78;59.73;100774.56;5013320;28;1370;-88
2022/07/27 09:48:53;;;;;;;;;;;;;;;17.88;56.64;100776.22;5013651;28;1207;-89
2022/07/27 09:51:18;;;;;;;;;;;;;;;17.79;57.10;100773.44;5006398;28;1420;-90
2022/07/27 09:53:44;;;;;;;;;;;;;;;17.65;57.21;100776.34;5012406;28;1966;-89
2022/07/27 09:56:12;;;;;;;;;;;;;;;17.61;57.69;100775.31;5012217;28;1750;-89
2022/07/27 09:58:39;;;;;;;;;;;;;;;17.64;57.86;100769.19;5008066;28;1463;-89
2022/07/27 10:01:04;;;;;;;;;;;;;;;17.65;57.72;100770.00;5009184;28;1361;-89
2022/07/27 10:03:30;;;;;;;;;;;;;;;17.63;57.90;100775.84;5014089;28;1063;-89
2022/07/27 10:05:55;;;;;;;;;;;;;;;17.65;59.19;100778.31;5009463;28;1315;-90
2022/07/27 10:08:21;;;;;;;;;;;;;;;17.66;59.56;100777.97;5012034;28;1329;-88
2022/07/27 10:10:46;;;;;;;;;;;;;;;17.73;57.56;100770.03;5013233;28;1285;-90
2022/07/27 10:13:11;;;;;;;;;;;;;;;17.82;59.04;100763.69;5012008;28;1893;-88
2022/07/27 10:15:39;;;;;;;;;;;;;;;17.94;58.62;100773.00;5004980;28;1619;-89
2022/07/27 10:18:07;;;;;;;;;;;;;;;17.82;58.36;100763.69;4994163;28;1643;-89
2022/07/27 10:20:35;;;;;;;;;;;;;;;17.86;58.53;100762.72;5009305;28;1743;-89
2022/07/27 10:23:00;;;;;;;;;;;;;;;17.94;59.97;100764.69;5012413;28;1298;-89
2022/07/27 10:25:28;;;;;;;;;;;;;;;18.22;61.31;100767.97;5012320;28;1435;-89
2022/07/27 10:28:10;;;;;;;;;;;;;;;18.33;56.57;100751.84;4998245;28;1745;-89
2022/07/27 10:30:35;;;;;;;;;;;;;;;18.14;55.86;100760.47;4994306;28;1713;-88
2022/07/27 10:33:11;;;;;;;;;;;;;;;18.22;57.51;100765.19;4998884;28;1910;-89
2022/07/27 10:35:36;;;;;;;;;;;;;;;18.12;54.89;100762.75;5004491;28;1339;-89
2022/07/27 10:38:06;;;;;;;;;;;;;;;17.82;54.77;100763.69;5012593;28;1200;-89
2022/07/27 10:40:34;;;;;;;;;;;;;;;17.84;55.61;100762.22;5012166;28;1361;-88
2022/07/27 10:43:07;;;;;;;;;;;;;;;17.84;55.94;100753.94;5015358;28;1390;-89
2022/07/27 10:45:40;;;;;;;;;;;;;;;18.06;56.94;100759.31;5013303;28;1306;-89
2022/07/27 10:48:05;;;;;;;;;;;;;;;18.20;59.40;100761.16;5011737;28;1543;-89
2022/07/27 10:50:31;;;;;;;;;;;;;;;18.27;53.61;100755.94;5004968;28;1294;-89
2022/07/27 10:52:57;;;;;;;;;;;;;;;18.24;55.77;100760.16;5013214;28;1956;-89
2022/07/27 10:55:29;;;;;;;;;;;;;;;18.33;53.60;100762.94;5007932;28;1440;-89
2022/07/27 10:57:55;;;;;;;;;;;;;;;18.49;54.12;100758.53;4999652;28;1448;-89
2022/07/27 11:00:20;;;;;;;;;;;;;;;18.76;54.61;100754.59;5015912;28;1174;-89
2022/07/27 11:02:45;;;;;;;;;;;;;;;18.77;55.36;100759.00;5013518;28;1387;-89
2022/07/27 11:05:10;;;;;;;;;;;;;;;18.56;52.96;100763.56;5006737;28;1702;-89
2022/07/27 11:07:35;;;;;;;;;;;;;;;18.70;55.22;100767.03;5012090;28;1626;-86
2022/07/27 11:10:02;;;;;;;;;;;;;;;18.74;54.68;100773.53;5013567;28;991;-86
2022/07/27 11:12:28;;;;;;;;;;;;;;;18.61;54.69;100766.22;5012664;28;1902;-85
2022/07/27 11:14:54;;;;;;;;;;;;;;;18.56;55.83;100771.88;5005901;28;1616;-87
2022/07/27 11:17:20;;;;;;;;;;;;;;;18.49;53.29;100767.66;5011694;28;1148;-86
2022/07/27 11:20:12;;;;;;;;;;;;;;;18.42;53.55;100767.34;5010074;28;1574;-86
2022/07/27 11:22:38;;;;;;;;;;;;;;;18.56;52.72;100763.56;5013176;28;1482;-85
2022/07/27 11:25:04;;;;;;;;;;;;;;;18.69;52.56;100763.44;5015214;28;1570;-86
2022/07/27 11:27:30;;;;;;;;;;;;;;;18.68;51.81;100772.91;5016299;28;1716;-86
2022/07/27 11:29:56;;;;;;;;;;;;;;;18.73;54.42;100760.81;5015302;28;1661;-88
2022/07/27 11:32:21;;;;;;;;;;;;;;;18.67;50.42;100760.16;5014362;28;1957;-86
2022/07/27 11:34:47;;;;;;;;;;;;;;;18.69;51.11;100759.84;5011713;28;1665;-86
2022/07/27 11:37:21;;;;;;;;;;;;;;;18.69;52.05;100748.75;5015581;28;1475;-85
2022/07/27 11:39:47;;;;;;;;;;;;;;;19.00;50.40;100743.78;5016090;28;1792;-85
2022/07/27 11:42:13;;;;;;;;;;;;;;;19.11;50.58;100742.28;5014675;28;1255;-86
2022/07/27 11:44:40;;;;;;;;;;;;;;;19.24;50.55;100741.25;5016195;28;1182;-85
2022/07/27 11:47:05;;;;;;;;;;;;;;;19.22;50.84;100748.28;5015350;28;1362;-86
2022/07/27 11:49:31;;;;;;;;;;;;;;;19.18;52.67;100750.91;5015168;28;1063;-86
2022/07/27 11:51:57;;;;;;;;;;;;;;;18.91;51.59;100762.41;5015291;28;1983;-85
2022/07/27 11:54:27;;;;;;;;;;;;;;;18.67;52.02;100759.34;5015332;28;1695;-85
2022/07/27 11:56:54;;;;;;;;;;;;;;;18.68;52.21;100763.75;5016490;28;1168;-85
2022/07/27 11:59:20;;;;;;;;;;;;;;;18.70;52.51;100759.53;5013998;28;1360;-88
2022/07/27 12:01:47;;;;;;;;;;;;;;;18.68;52.40;100752.66;5017978;28;1058;-91
2022/07/27 12:04:17;;;;;;;;;;;;;;;18.86;51.17;100765.38;5017225;28;1228;-90
2022/07/27 12:06:44;;;;;;;;;;;;;;;18.76;49.95;100766.53;5016318;28;900;-89
2022/07/27 12:09:11;;;;;;;;;;;;;;;18.88;51.68;100746.44;5015475;28;1303;-90
2022/07/27 12:11:49;;;;;;;;;;;;;;;18.95;51.67;100757.84;5015199;28;1335;-89
2022/07/27 12:14:14;;;;;;;;;;;;;;;19.04;52.31;100755.84;5012197;28;1949;-89
2022/07/27 12:16:40;;;;;;;;;;;;;;;19.25;51.18;100748.41;5014719;28;1241;-90
2022/07/27 12:19:05;;;;;;;;;;;;;;;19.21;50.54;100746.66;5015639;28;1291;-90
2022/07/27 12:21:30;;;;;;;;;;;;;;;19.50;51.20;100757.81;5000536;28;1412;-90
2022/07/27 12:23:57;;;;;;;;;;;;;;;19.56;49.31;100748.13;5016208;28;1004;-88
2022/07/27 12:26:24;;;;;;;;;;;;;;;19.62;49.27;100754.34;5015401;28;1705;-88
2022/07/27 12:29:05;;;;;;;;;;;;;;;19.69;48.95;100759.34;5014147;28;1424;-87
2022/07/27 12:31:30;;;;;;;;;;;;;;;19.45;49.58;100755.19;5014429;28;1563;-88
2022/07/27 12:33:56;;;;;;;;;;;;;;;19.41;50.59;100764.50;5014095;28;1953;-88
2022/07/27 12:36:24;;;;;;;;;;;;;;;19.27;49.48;100757.25;5013003;28;1746;-88
2022/07/27 12:38:49;;;;;;;;;;;;;;;19.52;50.04;100746.38;5014409;28;1331;-88
2022/07/27 12:41:25;;;;;;;;;;;;;;;19.72;49.54;100753.97;5015840;28;807;-89
2022/07/27 12:44:09;;;;;;;;;;;;;;;19.78;48.27;100747.03;5013689;28;1260;-89
2022/07/27 12:50:05;;;;;;;;;;;;;;;19.43;49.99;100751.13;5012568;28;1472;-89